createdAt,value
2023-01-29T00:01:48.137Z,102302.88
2023-01-29T00:05:49.483Z,102294.31
2023-01-29T00:09:50.829Z,102291.53
2023-01-29T00:13:52.934Z,102287.19
2023-01-29T00:17:54.323Z,102287.28
2023-01-29T00:21:55.736Z,102287.00
2023-01-29T00:25:59.980Z,102279.94
2023-01-29T00:30:12.694Z,102274.66
2023-01-29T00:34:14.015Z,102267.06
2023-01-29T00:38:15.527Z,102271.53
2023-01-29T00:42:35.521Z,102258.25
2023-01-29T00:46:36.992Z,102258.81
2023-01-29T00:50:38.350Z,102243.25
2023-01-29T00:54:39.708Z,102234.97
2023-01-29T00:58:40.977Z,102248.66
2023-01-29T01:03:01.249Z,102252.28
2023-01-29T01:07:02.576Z,102253.97
2023-01-29T01:11:06.341Z,102247.88
2023-01-29T01:15:08.059Z,102247.25
2023-01-29T01:19:09.957Z,102248.25
2023-01-29T01:23:11.234Z,102246.34
2023-01-29T01:27:13.352Z,102237.63
2023-01-29T01:31:15.517Z,102240.31
2023-01-29T01:35:17.178Z,102249.97
2023-01-29T01:39:18.612Z,102256.25
2023-01-29T01:43:19.969Z,102263.09
2023-01-29T01:47:27.888Z,102263.03
2023-01-29T01:51:32.119Z,102261.47
2023-01-29T01:55:35.799Z,102251.22
2023-01-29T01:59:40.070Z,102240.78
2023-01-29T02:04:14.456Z,102241.38
2023-01-29T02:08:41.401Z,102231.91
2023-01-29T02:12:45.302Z,102224.09
2023-01-29T02:16:46.684Z,102228.78
2023-01-29T02:21:29.163Z,102230.88
2023-01-29T02:25:55.409Z,102245.38
2023-01-29T02:30:13.724Z,102246.25
2023-01-29T02:34:28.641Z,102248.50
2023-01-29T02:38:49.582Z,102250.16
2023-01-29T02:42:55.824Z,102249.34
2023-01-29T02:47:03.169Z,102246.06
2023-01-29T02:51:11.342Z,102256.53
2023-01-29T02:55:19.229Z,102267.09
2023-01-29T02:59:25.365Z,102269.81
2023-01-29T03:03:41.783Z,102268.88
2023-01-29T03:07:51.920Z,102274.34
2023-01-29T03:11:58.804Z,102294.47
2023-01-29T03:16:11.403Z,102294.06
2023-01-29T03:20:17.646Z,102291.84
2023-01-29T03:24:45.048Z,102272.16
2023-01-29T03:29:06.408Z,102270.91
2023-01-29T03:33:11.120Z,102263.91
2023-01-29T03:37:36.015Z,102248.28
2023-01-29T03:41:53.638Z,102242.94
2023-01-29T03:46:04.862Z,102238.91
2023-01-29T03:50:24.610Z,102252.69
2023-01-29T03:54:39.220Z,102250.56
2023-01-29T03:58:48.225Z,102265.97
2023-01-29T04:03:14.248Z,102268.56
2023-01-29T04:07:23.728Z,102274.69
2023-01-29T04:11:27.306Z,102263.31
2023-01-29T04:15:33.870Z,102262.84
2023-01-29T04:19:35.882Z,102257.00
2023-01-29T04:23:37.220Z,102256.69
2023-01-29T04:27:52.042Z,102249.13
2023-01-29T04:32:35.232Z,102222.84
2023-01-29T04:36:51.512Z,102218.88
2023-01-29T04:41:01.320Z,102221.72
2023-01-29T04:45:31.186Z,102225.75
2023-01-29T04:49:41.203Z,102218.72
2023-01-29T04:53:45.620Z,102218.94
2023-01-29T04:58:24.512Z,102226.63
2023-01-29T05:02:28.051Z,102210.84
2023-01-29T05:06:31.538Z,102209.84
2023-01-29T05:10:34.224Z,102202.38
2023-01-29T05:14:37.726Z,102198.19
2023-01-29T05:18:39.062Z,102182.81
2023-01-29T05:22:41.739Z,102212.84
2023-01-29T05:27:03.571Z,102214.06
2023-01-29T05:31:05.019Z,102206.97
2023-01-29T05:35:06.787Z,102201.69
2023-01-29T05:39:08.135Z,102200.38
2023-01-29T05:43:16.476Z,102199.63
2023-01-29T05:47:21.249Z,102191.81
2023-01-29T05:51:22.707Z,102204.78
2023-01-29T05:55:23.998Z,102192.38
2023-01-29T05:59:25.411Z,102198.09
2023-01-29T06:03:26.695Z,102198.72
2023-01-29T06:07:28.048Z,102206.75
2023-01-29T06:11:29.582Z,102202.19
2023-01-29T06:15:30.894Z,102207.78
2023-01-29T06:19:32.256Z,102200.66
2023-01-29T06:23:33.660Z,102205.94
2023-01-29T06:27:35.176Z,102200.50
2023-01-29T06:31:39.368Z,102196.47
2023-01-29T06:35:41.152Z,102210.59
2023-01-29T06:39:42.426Z,102221.72
2023-01-29T06:43:44.887Z,102225.41
2023-01-29T06:47:46.283Z,102244.00
2023-01-29T06:51:47.578Z,102262.84
2023-01-29T06:55:52.840Z,102268.75
2023-01-29T06:59:54.229Z,102261.47
2023-01-29T07:03:55.715Z,102257.56
2023-01-29T07:07:57.635Z,102256.41
2023-01-29T07:11:58.998Z,102238.69
2023-01-29T07:16:02.981Z,102248.50
2023-01-29T07:20:06.007Z,102243.41
2023-01-29T07:24:07.650Z,102246.97
2023-01-29T07:28:09.147Z,102248.63
2023-01-29T07:32:10.567Z,102249.03
2023-01-29T07:36:13.087Z,102242.69
2023-01-29T07:40:15.062Z,102246.38
2023-01-29T07:44:16.825Z,102231.84
2023-01-29T07:48:18.539Z,102236.88
2023-01-29T07:52:22.154Z,102247.84
2023-01-29T07:56:23.815Z,102255.75
2023-01-29T08:00:25.575Z,102235.78
2023-01-29T08:04:26.888Z,102234.38
2023-01-29T08:08:28.161Z,102223.44
2023-01-29T08:12:29.523Z,102225.28
2023-01-29T08:16:30.927Z,102237.63
2023-01-29T08:20:32.539Z,102233.59
2023-01-29T08:24:47.562Z,102226.47
2023-01-29T08:28:55.334Z,102229.06
2023-01-29T08:32:56.855Z,102227.78
2023-01-29T08:36:58.489Z,102237.41
2023-01-29T08:40:59.864Z,102237.44
2023-01-29T08:45:01.187Z,102230.03
2023-01-29T08:49:03.186Z,102229.59
2023-01-29T08:53:09.806Z,102231.34
2023-01-29T08:57:11.170Z,102228.50
2023-01-29T09:01:14.237Z,102220.94
2023-01-29T09:05:15.888Z,102222.25
2023-01-29T09:09:18.327Z,102226.97
2023-01-29T09:13:19.727Z,102227.56
2023-01-29T09:17:21.390Z,102219.69
2023-01-29T09:21:22.661Z,102218.03
2023-01-29T09:25:24.036Z,102218.41
2023-01-29T09:29:25.377Z,102201.44
2023-01-29T09:33:26.871Z,102200.72
2023-01-29T09:37:28.244Z,102198.22
2023-01-29T09:41:45.287Z,102190.19
2023-01-29T09:45:58.175Z,102199.31
2023-01-29T09:50:04.903Z,102193.19
2023-01-29T09:54:19.734Z,102189.53
2023-01-29T09:58:39.725Z,102171.34
2023-01-29T10:02:58.969Z,102173.75
2023-01-29T10:07:19.327Z,102150.47
2023-01-29T10:11:48.838Z,102137.72
2023-01-29T10:16:22.852Z,102152.91
2023-01-29T10:20:52.967Z,102138.28
2023-01-29T10:25:00.447Z,102147.91
2023-01-29T10:29:06.784Z,102143.97
2023-01-29T10:33:19.078Z,102148.56
2023-01-29T10:37:30.830Z,102145.91
2023-01-29T10:41:54.075Z,102151.91
2023-01-29T10:46:04.581Z,102141.31
2023-01-29T10:50:16.304Z,102141.66
2023-01-29T10:54:30.041Z,102131.91
2023-01-29T10:58:34.514Z,102126.34
2023-01-29T11:02:35.887Z,102114.13
2023-01-29T11:06:37.446Z,102115.28
2023-01-29T11:11:08.338Z,102105.66
2023-01-29T11:15:18.735Z,102087.72
2023-01-29T11:19:37.485Z,102081.53
2023-01-29T11:23:38.799Z,102076.78
2023-01-29T11:27:45.421Z,102063.56
2023-01-29T11:31:47.114Z,102070.16
2023-01-29T11:35:48.508Z,102067.66
2023-01-29T11:39:50.585Z,102056.97
2023-01-29T11:43:51.864Z,102043.84
2023-01-29T11:47:55.861Z,102043.81
2023-01-29T11:52:01.914Z,102036.13
2023-01-29T11:56:16.153Z,102027.63
2023-01-29T12:00:28.420Z,102030.59
2023-01-29T12:04:30.303Z,102010.38
2023-01-29T12:08:38.400Z,102005.59
2023-01-29T12:12:42.275Z,101996.22
2023-01-29T12:16:58.488Z,101992.97
2023-01-29T12:21:23.873Z,101978.81
2023-01-29T12:25:38.438Z,101977.25
2023-01-29T12:29:52.811Z,101962.69
2023-01-29T12:34:05.448Z,101945.06
2023-01-29T12:38:21.794Z,101937.88
2023-01-29T12:42:24.486Z,101927.38
2023-01-29T12:46:33.855Z,101908.00
2023-01-29T12:50:37.489Z,101907.41
2023-01-29T12:54:49.152Z,101882.91
2023-01-29T12:58:55.643Z,101885.72
2023-01-29T13:03:20.990Z,101882.22
2023-01-29T13:07:30.608Z,101878.31
2023-01-29T13:11:42.592Z,101870.75
2023-01-29T13:15:44.604Z,101859.28
2023-01-29T13:19:50.769Z,101860.69
2023-01-29T13:23:56.241Z,101850.16
2023-01-29T13:27:57.775Z,101843.41
2023-01-29T13:32:01.739Z,101834.31
2023-01-29T13:36:03.684Z,101823.44
2023-01-29T13:40:07.354Z,101817.94
2023-01-29T13:44:21.042Z,101811.84
2023-01-29T13:48:27.803Z,101807.88
2023-01-29T13:52:35.786Z,101807.31
2023-01-29T13:56:40.098Z,101811.78
2023-01-29T14:00:41.369Z,101804.81
2023-01-29T14:04:42.693Z,101802.81
2023-01-29T14:08:45.235Z,101813.22
2023-01-29T14:12:48.399Z,101811.91
2023-01-29T14:16:49.970Z,101810.00
2023-01-29T14:20:58.639Z,101800.84
2023-01-29T14:25:03.836Z,101807.88
2023-01-29T14:29:32.574Z,101808.53
2023-01-29T14:33:38.482Z,101799.66
2023-01-29T14:37:41.384Z,101797.53
2023-01-29T14:41:43.009Z,101800.59
2023-01-29T14:45:45.004Z,101789.81
2023-01-29T14:49:59.445Z,101789.91
2023-01-29T14:54:14.556Z,101788.84
2023-01-29T14:58:23.689Z,101795.66
2023-01-29T15:02:37.115Z,101801.47
2023-01-29T15:06:46.370Z,101795.38
2023-01-29T15:11:19.035Z,101800.16
2023-01-29T15:15:52.560Z,101794.16
2023-01-29T15:19:54.965Z,101787.09
2023-01-29T15:24:06.938Z,101784.56
2023-01-29T15:28:11.081Z,101788.69
2023-01-29T15:32:29.834Z,101791.66
2023-01-29T15:36:32.128Z,101783.63
2023-01-29T15:40:34.688Z,101786.41
2023-01-29T15:44:36.014Z,101783.53
2023-01-29T15:48:43.464Z,101776.41
2023-01-29T15:52:49.848Z,101779.19
2023-01-29T15:56:53.069Z,101777.34
2023-01-29T16:00:57.247Z,101775.94
2023-01-29T16:04:59.291Z,101768.75
2023-01-29T16:09:01.091Z,101767.72
2023-01-29T16:13:03.129Z,101766.97
2023-01-29T16:17:23.024Z,101767.13
2023-01-29T16:21:33.832Z,101767.59
2023-01-29T16:25:38.550Z,101770.72
2023-01-29T16:29:40.008Z,101770.06
2023-01-29T16:33:45.307Z,101764.63
2023-01-29T16:37:48.840Z,101766.97
2023-01-29T16:42:21.397Z,101756.88
2023-01-29T16:46:26.120Z,101757.59
2023-01-29T16:50:36.051Z,101747.34
2023-01-29T16:54:43.214Z,101753.66
2023-01-29T16:58:50.658Z,101760.91
2023-01-29T17:02:56.422Z,101751.94
2023-01-29T17:07:01.249Z,101751.84
2023-01-29T17:11:03.157Z,101741.09
2023-01-29T17:15:26.038Z,101742.91
2023-01-29T17:19:30.009Z,101725.50
2023-01-29T17:23:31.386Z,101741.19
2023-01-29T17:27:32.801Z,101732.66
2023-01-29T17:31:34.302Z,101734.97
2023-01-29T17:35:38.004Z,101720.91
2023-01-29T17:39:39.456Z,101717.19
2023-01-29T17:43:41.029Z,101715.81
2023-01-29T17:47:42.375Z,101705.88
2023-01-29T17:51:43.740Z,101701.63
2023-01-29T17:55:45.111Z,101698.47
2023-01-29T17:59:46.775Z,101697.47
2023-01-29T18:03:48.080Z,101703.16
2023-01-29T18:07:52.127Z,101695.66
2023-01-29T18:11:53.981Z,101699.69
2023-01-29T18:15:55.794Z,101696.25
2023-01-29T18:19:58.232Z,101690.44
2023-01-29T18:23:59.704Z,101692.22
2023-01-29T18:28:01.734Z,101678.44
2023-01-29T18:32:03.969Z,101681.25
2023-01-29T18:36:06.715Z,101674.88
2023-01-29T18:40:09.831Z,101659.09
2023-01-29T18:44:11.718Z,101656.47
2023-01-29T18:48:14.102Z,101649.53
2023-01-29T18:52:16.289Z,101651.84
2023-01-29T18:56:17.808Z,101643.13
2023-01-29T19:00:19.645Z,101639.63
2023-01-29T19:04:21.069Z,101625.78
2023-01-29T19:08:22.416Z,101618.63
2023-01-29T19:12:23.864Z,101614.75
2023-01-29T19:16:25.712Z,101592.94
2023-01-29T19:20:27.140Z,101589.53
2023-01-29T19:24:28.546Z,101593.25
2023-01-29T19:28:29.983Z,101589.28
2023-01-29T19:32:32.040Z,101575.03
2023-01-29T19:36:33.454Z,101580.25
2023-01-29T19:40:35.676Z,101579.13
2023-01-29T19:44:39.101Z,101573.94
2023-01-29T19:48:40.742Z,101576.03
2023-01-29T19:52:51.217Z,101579.00
2023-01-29T19:56:53.679Z,101568.84
2023-01-29T20:01:00.300Z,101570.22
2023-01-29T20:05:03.415Z,101550.09
2023-01-29T20:09:05.471Z,101532.06
2023-01-29T20:13:06.780Z,101525.66
2023-01-29T20:17:08.239Z,101527.19
2023-01-29T20:21:12.469Z,101522.84
2023-01-29T20:25:14.116Z,101531.88
2023-01-29T20:29:15.505Z,101506.28
2023-01-29T20:33:16.842Z,101500.34
2023-01-29T20:37:19.236Z,101488.44
2023-01-29T20:41:21.132Z,101477.34
2023-01-29T20:45:23.108Z,101473.91
2023-01-29T20:49:24.416Z,101468.09
2023-01-29T20:53:25.721Z,101461.78
2023-01-29T20:57:27.331Z,101456.38
2023-01-29T21:01:28.868Z,101450.03
2023-01-29T21:05:30.307Z,101446.84
2023-01-29T21:09:31.868Z,101442.41
2023-01-29T21:13:33.663Z,101447.53
2023-01-29T21:17:35.063Z,101445.19
2023-01-29T21:21:36.468Z,101436.09
2023-01-29T21:25:38.737Z,101433.38
2023-01-29T21:29:40.153Z,101421.47
2023-01-29T21:33:41.960Z,101417.81
2023-01-29T21:37:43.387Z,101422.53
2023-01-29T21:42:05.078Z,101417.78
2023-01-29T21:46:13.789Z,101426.81
2023-01-29T21:50:16.051Z,101415.34
2023-01-29T21:54:18.080Z,101397.94
2023-01-29T21:58:20.493Z,101391.41
2023-01-29T22:02:22.965Z,101408.94
2023-01-29T22:06:24.674Z,101407.50
2023-01-29T22:10:26.130Z,101407.63
2023-01-29T22:14:27.610Z,101421.97
2023-01-29T22:18:28.908Z,101432.00
2023-01-29T22:22:30.277Z,101426.16
2023-01-29T22:26:32.114Z,101429.47
2023-01-29T22:30:33.611Z,101426.75
2023-01-29T22:34:34.975Z,101424.50
2023-01-29T22:38:36.475Z,101421.84
2023-01-29T22:42:37.811Z,101392.56
2023-01-29T22:46:39.229Z,101385.97
2023-01-29T22:50:41.474Z,101405.53
2023-01-29T22:54:43.634Z,101402.91
2023-01-29T22:58:45.031Z,101389.78
2023-01-29T23:02:47.222Z,101389.09
2023-01-29T23:06:48.559Z,101388.25
2023-01-29T23:10:50.205Z,101375.50
2023-01-29T23:14:51.503Z,101346.47
2023-01-29T23:18:55.989Z,101324.81
2023-01-29T23:22:57.431Z,101322.66
2023-01-29T23:27:17.123Z,101301.88
2023-01-29T23:31:18.575Z,101282.19
2023-01-29T23:35:20.025Z,101281.50
2023-01-29T23:39:21.451Z,101267.84
2023-01-29T23:43:26.563Z,101288.41
2023-01-29T23:47:27.889Z,101276.16
2023-01-29T23:51:29.190Z,101288.53
2023-01-29T23:55:30.509Z,101283.25
2023-01-29T23:59:31.874Z,101269.81
